Time;durP1;ratioP1;P1;durP2;ratioP2;P2;SDS_P1;SDS_P2;PMS_P1;PMS_P2;Temp;Humidity;BMP_temperature;BMP_pressure;BME280_temperature;BME280_humidity;BME280_pressure;Samples;Min_cycle;Max_cycle;Signal;HPM_P1;HPM_P2
2022/08/12 00:44:57;;;;;;;4.13;3.72;;;19.20;64.60;;;;;;5010711;28;20185;-64
2022/08/12 00:47:23;;;;;;;3.97;3.58;;;19.20;63.80;;;;;;5009976;28;20198;-64
2022/08/12 00:49:50;;;;;;;3.72;3.35;;;19.20;63.70;;;;;;5010072;28;20683;-64
2022/08/12 00:52:17;;;;;;;2.95;2.75;;;19.00;63.60;;;;;;5008676;28;20178;-64
2022/08/12 00:54:46;;;;;;;5.97;3.60;;;19.20;64.10;;;;;;5011141;28;20183;-64
2022/08/12 00:57:18;;;;;;;3.30;3.10;;;19.20;64.30;;;;;;5007097;28;20179;-64
2022/08/12 00:59:48;;;;;;;3.17;2.90;;;19.10;64.70;;;;;;5009042;28;20310;-64
2022/08/12 01:02:24;;;;;;;3.20;3.00;;;19.10;64.80;;;;;;5007542;28;20285;-64
2022/08/12 01:13:12;;;;;;;4.10;3.70;;;18.90;66.00;;;;;;5009472;28;20234;-63
2022/08/12 01:15:38;;;;;;;3.22;2.92;;;18.80;66.70;;;;;;5010310;28;20214;-64
2022/08/12 01:18:05;;;;;;;4.63;3.57;;;18.80;66.80;;;;;;5006854;28;20691;-64
2022/08/12 01:21:00;;;;;;;3.30;3.00;;;18.80;67.20;;;;;;5009107;28;20448;-63
2022/08/12 01:23:40;;;;;;;3.50;3.20;;;18.70;67.50;;;;;;4999082;28;20197;-63
2022/08/12 01:26:10;;;;;;;4.80;3.47;;;19.00;68.40;;;;;;5012719;28;20187;-64
2022/08/12 01:28:39;;;;;;;3.55;3.25;;;18.60;68.20;;;;;;5010125;28;20329;-64
2022/08/12 01:31:07;;;;;;;3.67;3.38;;;18.60;68.70;;;;;;5009365;28;20188;-63
2022/08/12 01:33:39;;;;;;;3.58;3.28;;;18.60;69.20;;;;;;5013717;28;20191;-64
2022/08/12 01:36:08;;;;;;;3.72;3.40;;;18.60;69.40;;;;;;5013881;28;20266;-63
2022/08/12 01:38:35;;;;;;;3.60;3.10;;;18.60;69.60;;;;;;5012155;28;20228;-64
2022/08/12 01:41:02;;;;;;;3.78;3.28;;;18.50;70.70;;;;;;5016478;28;20524;-64
2022/08/12 01:43:29;;;;;;;3.55;3.25;;;18.50;71.70;;;;;;5014320;28;20242;-64
2022/08/12 01:46:21;;;;;;;3.80;3.50;;;18.50;71.60;;;;;;5012571;28;20191;-64
2022/08/12 01:49:18;;;;;;;3.40;3.10;;;18.40;71.60;;;;;;5013360;28;20265;-64
2022/08/12 01:51:47;;;;;;;3.42;3.13;;;18.30;72.10;;;;;;5010598;28;20191;-64
2022/08/12 01:54:16;;;;;;;5.38;3.22;;;18.30;72.50;;;;;;5013217;28;20201;-64
2022/08/12 01:57:01;;;;;;;3.75;3.45;;;18.20;72.80;;;;;;5012930;28;20192;-65
2022/08/12 01:59:45;;;;;;;3.42;3.20;;;18.30;73.10;;;;;;5012346;28;20219;-65
2022/08/12 02:02:20;;;;;;;4.57;3.50;;;18.30;73.30;;;;;;5002807;28;20197;-66
2022/08/12 02:11:24;;;;;;;3.47;3.17;;;18.20;74.50;;;;;;5009083;28;20244;-65
2022/08/12 02:14:01;;;;;;;4.35;3.30;;;18.20;74.70;;;;;;5013773;28;20194;-65
2022/08/12 02:16:45;;;;;;;7.68;3.70;;;18.20;75.20;;;;;;5008963;28;20255;-64
2022/08/12 02:19:55;;;;;;;3.03;2.83;;;18.20;75.50;;;;;;5011579;28;20206;-65
2022/08/12 02:22:30;;;;;;;3.33;3.13;;;18.20;75.60;;;;;;5004078;28;20183;-65
2022/08/12 02:25:08;;;;;;;3.00;2.80;;;18.40;76.30;;;;;;5000344;28;20190;-65
2022/08/12 02:27:42;;;;;;;3.17;2.97;;;18.10;76.40;;;;;;5007459;28;20314;-65
2022/08/12 02:30:19;;;;;;;3.85;3.10;;;18.10;76.50;;;;;;5011671;28;20209;-65
2022/08/12 02:32:47;;;;;;;3.13;2.90;;;18.10;76.80;;;;;;5015609;28;20197;-65
2022/08/12 02:35:18;;;;;;;3.65;3.35;;;18.00;77.10;;;;;;5013121;28;20175;-66
2022/08/12 02:37:46;;;;;;;3.70;3.40;;;18.00;77.30;;;;;;5002691;28;20274;-65
2022/08/12 02:40:14;;;;;;;3.63;3.15;;;18.00;78.30;;;;;;5012078;28;20233;-65
2022/08/12 02:42:51;;;;;;;3.72;2.63;;;18.00;79.20;;;;;;5012112;28;20183;-65
2022/08/12 02:45:24;;;;;;;3.83;3.17;;;18.00;79.70;;;;;;5012351;28;20217;-65
2022/08/12 02:47:53;;;;;;;3.50;3.20;;;17.90;79.00;;;;;;5012917;28;20210;-65
2022/08/12 02:50:21;;;;;;;4.15;3.85;;;18.10;79.10;;;;;;5022883;28;20730;-64
2022/08/12 02:52:50;;;;;;;3.50;3.15;;;18.10;80.00;;;;;;5012379;28;20197;-63
2022/08/12 02:55:20;;;;;;;5.50;3.40;;;17.90;79.20;;;;;;5013079;28;20597;-64
2022/08/12 02:57:46;;;;;;;4.20;3.90;;;18.00;79.50;;;;;;5010141;28;20217;-66
2022/08/12 03:00:14;;;;;;;3.58;3.28;;;17.90;80.00;;;;;;5012055;28;20277;-63
2022/08/12 03:02:45;;;;;;;3.22;3.03;;;17.80;80.50;;;;;;5011799;28;20274;-64
2022/08/12 03:05:16;;;;;;;3.58;3.25;;;17.70;81.30;;;;;;5011650;28;20616;-63
2022/08/12 03:07:49;;;;;;;3.55;3.28;;;17.70;82.00;;;;;;5015508;28;20202;-64
2022/08/12 03:10:18;;;;;;;3.53;3.20;;;17.70;82.40;;;;;;5002267;28;20215;-64
2022/08/12 03:12:45;;;;;;;3.83;3.55;;;17.70;82.50;;;;;;5011975;28;20190;-64
2022/08/12 03:15:14;;;;;;;3.92;3.10;;;17.70;82.80;;;;;;5012301;28;20233;-64
2022/08/12 03:17:56;;;;;;;3.35;3.05;;;17.70;82.70;;;;;;5008792;28;20302;-65
2022/08/12 03:20:23;;;;;;;3.72;3.42;;;17.70;83.20;;;;;;5009080;28;20588;-65
2022/08/12 03:22:50;;;;;;;3.75;3.45;;;17.80;84.10;;;;;;5011300;28;20735;-65
2022/08/12 03:25:26;;;;;;;3.30;3.00;;;17.90;84.20;;;;;;5014010;28;20567;-64
2022/08/12 03:27:56;;;;;;;4.30;3.40;;;17.60;84.00;;;;;;5008445;28;20207;-64
2022/08/12 03:30:28;;;;;;;3.28;2.97;;;17.60;84.50;;;;;;5010109;28;20190;-64
2022/08/12 03:32:55;;;;;;;3.83;3.53;;;17.60;84.70;;;;;;5010596;28;20194;-64
2022/08/12 03:35:26;;;;;;;5.43;3.25;;;17.50;85.00;;;;;;5010824;28;20214;-64
2022/08/12 03:37:55;;;;;;;3.20;3.00;;;17.50;85.20;;;;;;5009601;28;20210;-64
2022/08/12 04:02:25;;;;;;;3.88;3.58;;;17.50;88.70;;;;;;5005174;28;22179;-64
2022/08/12 04:04:50;;;;;;;3.80;3.50;;;17.30;88.90;;;;;;5007355;28;20624;-63
2022/08/12 04:07:17;;;;;;;4.00;3.60;;;17.30;89.30;;;;;;5006060;28;20259;-63
2022/08/12 04:09:45;;;;;;;4.00;3.60;;;17.20;89.60;;;;;;5005254;28;20552;-62
2022/08/12 04:14:57;;;;;;;3.65;3.35;;;17.50;89.90;;;;;;5008601;28;20229;-63
2022/08/12 04:17:25;;;;;;;4.28;3.88;;;17.30;89.70;;;;;;5010000;28;20233;-63
2022/08/12 04:19:51;;;;;;;4.03;3.70;;;17.20;90.00;;;;;;5009240;28;20206;-63
2022/08/12 04:22:17;;;;;;;3.50;3.20;;;17.20;90.10;;;;;;5008615;28;20686;-62
2022/08/12 04:24:44;;;;;;;3.50;3.23;;;17.40;90.40;;;;;;5008578;28;20214;-63
2022/08/12 04:27:10;;;;;;;3.95;3.58;;;17.10;90.20;;;;;;5009831;28;20701;-63
2022/08/12 04:29:38;;;;;;;4.05;3.22;;;17.10;90.50;;;;;;5011283;28;20870;-65
2022/08/12 04:32:05;;;;;;;4.60;4.10;;;16.80;90.50;;;;;;5009174;28;20598;-62
2022/08/12 04:34:31;;;;;;;3.97;3.67;;;17.10;90.80;;;;;;5011035;28;20182;-62
2022/08/12 04:36:57;;;;;;;4.20;3.80;;;17.30;90.90;;;;;;5006325;28;20804;-62
2022/08/12 04:39:25;;;;;;;4.67;4.37;;;17.00;91.00;;;;;;5002725;28;20473;-62
2022/08/12 04:41:51;;;;;;;4.10;3.80;;;17.10;91.60;;;;;;5006924;28;20198;-63
2022/08/12 04:44:17;;;;;;;5.82;5.25;;;17.00;91.80;;;;;;5004472;28;20186;-63
2022/08/12 04:46:43;;;;;;;5.50;3.80;;;17.00;91.30;;;;;;5009178;28;20656;-63
2022/08/12 04:49:09;;;;;;;6.97;4.10;;;17.20;91.20;;;;;;5005607;28;20211;-62
2022/08/12 04:51:35;;;;;;;6.28;5.30;;;17.10;91.20;;;;;;5006159;28;20225;-62
2022/08/12 04:54:03;;;;;;;4.73;4.27;;;17.20;91.30;;;;;;5005929;28;20660;-63
2022/08/12 04:56:29;;;;;;;5.00;4.50;;;17.10;91.30;;;;;;5007456;28;20179;-63
2022/08/12 04:58:56;;;;;;;4.50;4.15;;;17.20;91.60;;;;;;4999285;28;20238;-63
2022/08/12 05:01:26;;;;;;;4.82;4.43;;;17.20;91.60;;;;;;5007262;28;20626;-64
2022/08/12 05:03:55;;;;;;;4.05;3.65;;;17.10;91.40;;;;;;5005357;28;20233;-64
2022/08/12 05:06:22;;;;;;;6.05;3.90;;;17.00;91.30;;;;;;5006160;28;20178;-64
2022/08/12 05:08:48;;;;;;;4.43;4.07;;;17.00;91.20;;;;;;5009308;28;20206;-64
2022/08/12 05:11:14;;;;;;;5.18;4.68;;;17.20;91.10;;;;;;5009744;28;20229;-64
2022/08/12 05:13:40;;;;;;;5.93;3.93;;;17.20;91.30;;;;;;5009353;28;20675;-65
2022/08/12 05:16:07;;;;;;;5.03;4.00;;;17.20;91.30;;;;;;5002640;28;20620;-65
2022/08/12 05:18:36;;;;;;;4.55;4.15;;;17.30;91.40;;;;;;5002441;28;20225;-64
2022/08/12 05:21:02;;;;;;;4.78;4.47;;;17.20;91.40;;;;;;5003824;28;20667;-64
2022/08/12 05:23:29;;;;;;;4.88;4.50;;;17.40;91.10;;;;;;5012497;28;20198;-64
2022/08/12 05:25:55;;;;;;;4.32;4.00;;;17.40;91.10;;;;;;5005575;28;20191;-64
2022/08/12 05:28:23;;;;;;;5.03;4.63;;;17.30;90.70;;;;;;5003859;28;20222;-51
2022/08/12 05:30:48;;;;;;;4.10;3.78;;;17.60;90.60;;;;;;5003164;28;20480;-53
2022/08/12 05:33:14;;;;;;;4.77;4.03;;;17.60;90.50;;;;;;5006123;28;20285;-52
2022/08/12 05:35:43;;;;;;;4.93;4.43;;;17.70;90.50;;;;;;5009015;28;20202;-56
2022/08/12 05:40:54;;;;;;;4.43;4.03;;;17.80;90.70;;;;;;5009599;28;20306;-55
2022/08/12 05:43:20;;;;;;;4.20;3.90;;;18.00;90.80;;;;;;5000372;28;20184;-56
2022/08/12 05:45:46;;;;;;;7.78;4.40;;;18.10;90.40;;;;;;5005919;28;20446;-57
2022/08/12 05:48:13;;;;;;;4.50;4.10;;;18.10;90.20;;;;;;5004350;28;20219;-56
2022/08/12 05:50:39;;;;;;;20.38;4.93;;;18.30;90.10;;;;;;5008935;28;20269;-55
2022/08/12 05:53:06;;;;;;;6.22;4.45;;;18.30;89.60;;;;;;5007409;28;20674;-59
2022/08/12 05:55:32;;;;;;;6.70;4.40;;;18.00;88.90;;;;;;5005439;28;20645;-59
2022/08/12 05:58:00;;;;;;;5.20;4.70;;;18.50;89.20;;;;;;5008967;28;20215;-59
2022/08/12 06:00:28;;;;;;;4.47;4.05;;;18.60;88.50;;;;;;5006741;28;20652;-59
2022/08/12 06:03:01;;;;;;;5.15;4.65;;;18.70;88.70;;;;;;5007230;28;20215;-57
2022/08/12 06:05:34;;;;;;;4.82;4.22;;;18.80;87.80;;;;;;5008335;28;20561;-57
2022/08/12 06:08:04;;;;;;;4.60;4.20;;;19.10;87.10;;;;;;5004259;28;20227;-61
2022/08/12 06:10:31;;;;;;;6.15;4.20;;;19.40;85.90;;;;;;5007412;28;20219;-58
2022/08/12 06:12:57;;;;;;;6.00;4.20;;;19.60;84.50;;;;;;5001109;28;20869;-58
2022/08/12 06:15:23;;;;;;;5.50;4.22;;;19.80;83.80;;;;;;5003442;28;21233;-60
2022/08/12 06:17:49;;;;;;;4.20;3.90;;;19.90;83.60;;;;;;5004331;28;20219;-60
2022/08/12 06:20:15;;;;;;;5.97;5.33;;;20.10;79.20;;;;;;5009099;28;20179;-59
2022/08/12 06:22:46;;;;;;;6.72;6.13;;;20.20;79.60;;;;;;5011880;28;20190;-60
2022/08/12 06:25:17;;;;;;;4.38;4.07;;;20.20;76.80;;;;;;5009432;28;20210;-60
2022/08/12 06:27:46;;;;;;;6.88;4.80;;;20.30;76.80;;;;;;5008908;28;20316;-64
2022/08/12 06:30:14;;;;;;;4.97;4.10;;;20.50;76.80;;;;;;5012373;28;20230;-63
2022/08/12 06:32:40;;;;;;;4.50;4.20;;;20.50;76.00;;;;;;5008561;28;20277;-67
2022/08/12 06:35:06;;;;;;;4.93;4.50;;;20.60;75.30;;;;;;5009098;28;20366;-67
2022/08/12 06:37:44;;;;;;;4.25;3.67;;;20.70;74.70;;;;;;5008394;28;20268;-68
2022/08/12 06:40:11;;;;;;;6.03;3.92;;;20.80;75.00;;;;;;5009833;28;20179;-68
2022/08/12 06:42:47;;;;;;;5.63;3.93;;;20.80;73.50;;;;;;5011408;28;20656;-69
2022/08/12 06:45:14;;;;;;;4.07;3.67;;;20.80;73.00;;;;;;5008307;28;20441;-69
2022/08/12 06:47:41;;;;;;;4.70;4.30;;;21.60;73.90;;;;;;5013159;28;20206;-69
2022/08/12 06:50:07;;;;;;;3.77;3.57;;;20.70;71.80;;;;;;5011510;28;20171;-69
2022/08/12 06:52:33;;;;;;;5.15;3.97;;;21.10;71.90;;;;;;5007153;28;20517;-69
2022/08/12 06:54:59;;;;;;;5.77;3.97;;;21.20;71.70;;;;;;5006778;28;20266;-68
2022/08/12 06:57:28;;;;;;;4.30;3.90;;;21.30;71.10;;;;;;5008319;28;20703;-68
2022/08/12 06:59:54;;;;;;;4.50;3.50;;;21.40;70.20;;;;;;5007090;28;20220;-71
2022/08/12 07:02:21;;;;;;;4.00;3.60;;;21.40;69.70;;;;;;5009904;28;20466;-70
2022/08/12 07:04:51;;;;;;;4.33;3.73;;;21.50;69.60;;;;;;5017827;28;20438;-71
2022/08/12 07:07:17;;;;;;;3.97;3.57;;;21.80;70.10;;;;;;5006934;28;20501;-70
2022/08/12 07:09:43;;;;;;;6.07;4.47;;;22.00;68.80;;;;;;5010698;28;20446;-71
2022/08/12 07:12:16;;;;;;;4.80;4.40;;;22.60;66.90;;;;;;5007574;28;20449;-72
2022/08/12 07:14:41;;;;;;;4.60;3.70;;;25.00;64.20;;;;;;5007872;28;20246;-69
2022/08/12 07:17:07;;;;;;;8.00;4.60;;;27.70;55.10;;;;;;5003596;28;20442;-74
2022/08/12 07:19:33;;;;;;;5.77;3.37;;;30.30;49.40;;;;;;5009280;28;20742;-71
2022/08/12 07:22:05;;;;;;;3.70;3.30;;;33.00;44.10;;;;;;5012899;28;20265;-70
2022/08/12 07:24:31;;;;;;;3.40;3.10;;;35.40;38.80;;;;;;5011510;28;20178;-68
2022/08/12 07:26:57;;;;;;;3.23;3.03;;;37.30;35.20;;;;;;5009993;28;20460;-69
2022/08/12 07:29:24;;;;;;;4.63;3.00;;;38.00;31.70;;;;;;5010520;28;20465;-73
2022/08/12 07:31:51;;;;;;;4.10;3.00;;;38.60;30.50;;;;;;5005957;28;20444;-67
2022/08/12 07:34:16;;;;;;;4.33;3.23;;;38.50;29.70;;;;;;5010136;28;20530;-67
2022/08/12 07:36:44;;;;;;;3.10;2.90;;;39.40;29.00;;;;;;5009597;28;20532;-72
2022/08/12 07:39:10;;;;;;;3.23;3.03;;;39.30;28.40;;;;;;5010390;28;20530;-71
2022/08/12 07:41:36;;;;;;;3.60;3.30;;;40.60;28.00;;;;;;5009603;28;20452;-72
2022/08/12 07:44:09;;;;;;;3.40;3.10;;;39.70;27.60;;;;;;5008751;28;20496;-70
2022/08/12 07:46:40;;;;;;;3.53;3.23;;;39.90;27.50;;;;;;5006450;28;20203;-69
2022/08/12 07:49:12;;;;;;;3.30;3.00;;;40.90;27.30;;;;;;5007360;28;20461;-68
2022/08/12 07:51:39;;;;;;;2.87;2.67;;;42.30;26.40;;;;;;5008822;28;20701;-68
2022/08/12 07:54:12;;;;;;;6.17;3.50;;;42.80;25.30;;;;;;5009905;28;20454;-69
2022/08/12 07:56:40;;;;;;;5.07;3.40;;;40.30;26.20;;;;;;5012508;28;20442;-70
2022/08/12 07:59:07;;;;;;;3.93;3.27;;;41.00;26.60;;;;;;5008480;28;20473;-71
2022/08/12 08:01:33;;;;;;;3.23;2.90;;;41.50;25.40;;;;;;5010096;28;21258;-73
2022/08/12 08:06:45;;;;;;;2.90;2.70;;;39.20;27.00;;;;;;5004515;28;20492;-70
2022/08/12 08:09:14;;;;;;;2.80;2.60;;;39.90;26.40;;;;;;5008790;28;20518;-70
2022/08/12 08:14:27;;;;;;;3.50;2.80;;;41.70;25.50;;;;;;5012080;28;20491;-71
2022/08/12 08:16:54;;;;;;;3.20;2.90;;;42.20;24.60;;;;;;5004158;28;20883;-70
2022/08/12 08:19:24;;;;;;;2.87;2.57;;;41.80;24.40;;;;;;5009299;28;20560;-71
2022/08/12 08:21:52;;;;;;;3.03;2.80;;;41.20;24.60;;;;;;5000131;28;20439;-72
2022/08/12 08:24:18;;;;;;;3.80;2.73;;;41.20;24.90;;;;;;5008686;28;20449;-70
2022/08/12 08:26:47;;;;;;;4.73;2.80;;;40.70;25.60;;;;;;5008591;28;20443;-69
2022/08/12 08:29:14;;;;;;;2.90;2.70;;;42.20;24.80;;;;;;5003693;28;20249;-70
2022/08/12 08:31:42;;;;;;;3.60;3.30;;;42.30;24.80;;;;;;5003791;28;20449;-70
2022/08/12 08:34:12;;;;;;;3.70;3.10;;;43.30;24.00;;;;;;5009812;28;20441;-69
2022/08/12 08:36:39;;;;;;;5.83;3.20;;;42.50;24.20;;;;;;5006518;28;20889;-70
2022/08/12 08:39:09;;;;;;;2.90;2.70;;;42.60;24.00;;;;;;5008174;28;20917;-70
2022/08/12 08:44:19;;;;;;;4.20;2.90;;;43.00;23.10;;;;;;5012783;28;20498;-69
2022/08/12 08:46:46;;;;;;;3.60;3.13;;;42.20;23.70;;;;;;5016889;28;20930;-70
2022/08/12 08:49:13;;;;;;;2.97;2.67;;;42.80;24.10;;;;;;5007701;28;20211;-70
2022/08/12 08:51:38;;;;;;;5.47;3.67;;;40.40;24.50;;;;;;5009210;28;20533;-70
2022/08/12 08:54:05;;;;;;;3.07;2.77;;;41.30;24.10;;;;;;5009939;28;20607;-68
2022/08/12 08:56:32;;;;;;;4.90;2.60;;;41.00;24.10;;;;;;5007759;28;20202;-65
2022/08/12 08:58:58;;;;;;;2.80;2.60;;;40.40;24.70;;;;;;5006322;28;20480;-67
2022/08/12 09:01:25;;;;;;;2.67;2.53;;;41.20;24.30;;;;;;5000166;28;20464;-66
2022/08/12 09:03:50;;;;;;;5.03;4.63;;;41.50;24.10;;;;;;5010388;28;20445;-65
2022/08/12 09:06:16;;;;;;;3.50;3.27;;;40.30;24.70;;;;;;5004405;28;20442;-65
2022/08/12 09:08:42;;;;;;;2.77;2.57;;;39.90;24.20;;;;;;5005939;28;20253;-72
2022/08/12 09:13:53;;;;;;;2.67;2.27;;;39.60;24.00;;;;;;5006077;28;21180;-67
2022/08/12 09:16:19;;;;;;;2.93;2.73;;;39.50;24.50;;;;;;5003767;28;20449;-68
2022/08/12 09:18:45;;;;;;;2.90;2.40;;;39.90;24.50;;;;;;5009946;28;20222;-66
2022/08/12 09:21:12;;;;;;;2.40;2.20;;;38.80;24.60;;;;;;5003053;28;20662;-68
2022/08/12 09:23:38;;;;;;;3.20;2.70;;;38.20;25.40;;;;;;5001683;28;20442;-73
2022/08/12 09:26:04;;;;;;;2.97;2.70;;;38.50;25.30;;;;;;5001786;28;20468;-73
2022/08/12 09:28:31;;;;;;;2.97;2.50;;;38.50;25.10;;;;;;5002227;28;20211;-73
2022/08/12 09:30:58;;;;;;;2.73;2.53;;;39.30;25.20;;;;;;5004970;28;20195;-71
2022/08/12 09:33:29;;;;;;;2.67;2.53;;;37.30;25.80;;;;;;5016778;28;20485;-66
2022/08/12 09:35:56;;;;;;;4.37;2.87;;;37.30;26.00;;;;;;5006402;28;20508;-71
2022/08/12 09:38:23;;;;;;;2.60;2.37;;;37.30;25.90;;;;;;5004139;28;20472;-66
2022/08/12 09:40:49;;;;;;;2.63;2.43;;;36.70;26.40;;;;;;5003128;28;20437;-66
2022/08/12 09:46:01;;;;;;;2.63;2.37;;;34.90;27.70;;;;;;5014850;28;20229;-67
2022/08/12 09:48:28;;;;;;;3.80;2.90;;;34.20;28.70;;;;;;5008295;28;20829;-66
2022/08/12 09:50:54;;;;;;;2.70;2.50;;;33.70;29.00;;;;;;5008096;28;20476;-66
2022/08/12 09:53:23;;;;;;;3.63;2.33;;;33.40;28.80;;;;;;5008437;28;20527;-66
2022/08/12 09:55:52;;;;;;;4.07;2.23;;;33.50;28.90;;;;;;5013632;28;20541;-66
2022/08/12 09:58:25;;;;;;;2.57;2.37;;;33.30;29.20;;;;;;5012597;28;20457;-67
2022/08/12 10:00:53;;;;;;;2.50;2.30;;;33.20;29.20;;;;;;5011835;28;20453;-66
2022/08/12 10:03:20;;;;;;;2.10;2.00;;;32.70;29.10;;;;;;5013303;28;20441;-65
2022/08/12 10:05:47;;;;;;;4.40;2.63;;;33.40;29.60;;;;;;5012451;28;20851;-66
2022/08/12 10:08:15;;;;;;;2.90;2.70;;;34.50;28.60;;;;;;5011595;28;20465;-66
2022/08/12 10:13:40;;;;;;;4.50;2.60;;;34.20;28.40;;;;;;5012814;28;20432;-66
2022/08/12 10:16:20;;;;;;;3.30;2.60;;;33.30;29.50;;;;;;5011946;28;21515;-66
2022/08/12 10:18:52;;;;;;;2.60;2.40;;;32.40;30.10;;;;;;5012812;28;20507;-66
2022/08/12 10:21:23;;;;;;;2.83;2.63;;;32.10;30.90;;;;;;5007085;28;20443;-66
2022/08/12 10:23:50;;;;;;;2.77;2.13;;;31.70;31.40;;;;;;5016682;28;20423;-65
2022/08/12 10:31:50;;;;;;;3.10;2.90;;;30.50;33.00;;;;;;5012581;28;20865;-66
2022/08/12 10:34:16;;;;;;;2.83;2.10;;;30.30;33.70;;;;;;5012075;28;20434;-66
2022/08/12 10:36:42;;;;;;;4.23;2.90;;;29.90;34.10;;;;;;5011101;28;21058;-66
2022/08/12 10:39:12;;;;;;;2.80;2.60;;;29.70;34.70;;;;;;5011731;28;20479;-66
2022/08/12 10:44:22;;;;;;;4.00;3.60;;;29.10;35.60;;;;;;5012153;28;20479;-65
2022/08/12 10:46:51;;;;;;;2.40;2.27;;;29.00;36.50;;;;;;5015380;28;20883;-67
2022/08/12 10:49:18;;;;;;;3.50;3.20;;;28.90;36.10;;;;;;5012107;28;20462;-66
2022/08/12 10:51:44;;;;;;;2.40;2.27;;;29.00;36.80;;;;;;5006907;28;20443;-66
2022/08/12 10:54:12;;;;;;;2.57;2.37;;;28.90;36.30;;;;;;5005668;28;20434;-66
2022/08/12 10:56:39;;;;;;;3.33;2.60;;;28.90;36.10;;;;;;5011832;28;20834;-65
2022/08/12 10:59:05;;;;;;;3.57;2.73;;;29.00;36.20;;;;;;5011293;28;20470;-66
2022/08/12 11:01:32;;;;;;;3.57;2.90;;;28.80;35.60;;;;;;5009704;28;20905;-66
2022/08/12 11:04:00;;;;;;;4.13;2.73;;;28.90;35.80;;;;;;5010300;28;20821;-66
2022/08/12 11:06:27;;;;;;;2.60;2.40;;;28.70;35.80;;;;;;5009411;28;20435;-65
2022/08/12 11:08:55;;;;;;;7.93;2.40;;;28.80;36.00;;;;;;5007814;28;20458;-66
2022/08/12 11:11:20;;;;;;;3.27;2.10;;;28.90;35.70;;;;;;5012337;28;20485;-65
2022/08/12 11:13:46;;;;;;;3.03;2.83;;;29.20;35.40;;;;;;5011548;28;20507;-67
2022/08/12 11:16:12;;;;;;;3.77;3.47;;;29.50;35.10;;;;;;5010981;28;20194;-66
2022/08/12 11:18:39;;;;;;;2.67;2.47;;;29.70;35.40;;;;;;5011996;28;20249;-66
2022/08/12 11:21:04;;;;;;;3.07;2.73;;;29.90;34.70;;;;;;5011365;28;20911;-67
2022/08/12 11:23:30;;;;;;;3.23;2.93;;;29.90;34.40;;;;;;5022665;28;20456;-66
2022/08/12 11:25:56;;;;;;;3.97;3.27;;;30.00;34.40;;;;;;5011842;28;20663;-65
2022/08/12 11:28:21;;;;;;;2.17;2.07;;;30.00;34.20;;;;;;5011250;28;20207;-67
2022/08/12 11:30:47;;;;;;;2.50;2.30;;;30.30;33.50;;;;;;5011239;28;20679;-66
2022/08/12 11:33:12;;;;;;;2.90;2.60;;;30.20;33.80;;;;;;5011800;28;20663;-67
2022/08/12 11:35:40;;;;;;;2.90;2.70;;;30.20;33.70;;;;;;5011820;28;20265;-67
2022/08/12 11:38:06;;;;;;;3.03;2.30;;;30.50;33.10;;;;;;4998649;28;20747;-67
2022/08/12 11:40:32;;;;;;;4.60;2.57;;;30.30;32.70;;;;;;5011550;28;20513;-67
2022/08/12 11:42:59;;;;;;;2.20;2.10;;;29.90;32.80;;;;;;5011229;28;20438;-66
2022/08/12 11:45:26;;;;;;;2.83;2.43;;;30.50;32.50;;;;;;5002794;28;20867;-66
2022/08/12 11:47:53;;;;;;;3.60;2.20;;;31.20;31.70;;;;;;5007085;28;20448;-66
2022/08/12 11:50:20;;;;;;;2.50;2.30;;;31.50;31.40;;;;;;5011605;28;20514;-66
2022/08/12 11:52:46;;;;;;;2.40;2.20;;;31.00;31.40;;;;;;5011717;28;20451;-66
2022/08/12 11:55:12;;;;;;;2.80;2.43;;;30.40;31.70;;;;;;5011133;28;21064;-66
2022/08/12 11:57:52;;;;;;;2.90;2.20;;;29.70;33.30;;;;;;5010545;28;20448;-66
2022/08/12 12:00:18;;;;;;;2.67;2.47;;;29.60;33.10;;;;;;5010924;28;20216;-65
2022/08/12 12:02:44;;;;;;;2.47;2.00;;;29.50;33.30;;;;;;5010367;28;20460;-65
2022/08/12 12:05:10;;;;;;;2.20;2.10;;;29.50;33.10;;;;;;5006070;28;20437;-66
2022/08/12 12:07:40;;;;;;;2.80;2.30;;;29.80;33.50;;;;;;5005158;28;20206;-67
2022/08/12 12:10:06;;;;;;;3.10;2.90;;;30.20;32.50;;;;;;5007004;28;20197;-64
2022/08/12 12:12:32;;;;;;;2.33;2.13;;;30.10;32.20;;;;;;5006022;28;20453;-69
2022/08/12 12:14:58;;;;;;;2.27;2.13;;;30.10;33.20;;;;;;5007662;28;20581;-66
2022/08/12 12:17:24;;;;;;;4.90;2.43;;;29.80;32.80;;;;;;5002930;28;20186;-67
2022/08/12 12:19:51;;;;;;;4.70;2.10;;;29.60;33.40;;;;;;5007155;28;20294;-67
2022/08/12 12:22:17;;;;;;;3.20;2.50;;;29.40;33.70;;;;;;5002643;28;20444;-65
2022/08/12 12:24:46;;;;;;;2.57;2.37;;;29.20;33.50;;;;;;5008300;28;20451;-66
2022/08/12 12:27:12;;;;;;;2.47;2.27;;;29.20;33.80;;;;;;5002222;28;20443;-65
2022/08/12 12:29:37;;;;;;;4.07;2.43;;;29.20;34.00;;;;;;5004278;28;20491;-66
2022/08/12 12:32:03;;;;;;;2.20;2.10;;;29.30;33.80;;;;;;5007592;28;20547;-66
2022/08/12 12:34:29;;;;;;;2.70;2.50;;;29.30;34.10;;;;;;5007956;28;20659;-66
2022/08/12 12:36:54;;;;;;;4.27;1.93;;;29.00;33.90;;;;;;5006834;28;20435;-67
2022/08/12 12:39:20;;;;;;;2.97;2.77;;;29.00;33.60;;;;;;5006721;28;20213;-66
2022/08/12 12:41:46;;;;;;;2.40;2.20;;;28.80;34.00;;;;;;5023183;28;20724;-66
2022/08/12 12:44:11;;;;;;;2.30;2.10;;;28.80;34.00;;;;;;5011116;28;20234;-66
2022/08/12 12:46:37;;;;;;;1.97;1.87;;;29.00;33.30;;;;;;5005725;28;20238;-66
2022/08/12 12:49:02;;;;;;;3.13;2.50;;;29.30;33.10;;;;;;5006080;28;20328;-66
2022/08/12 12:51:28;;;;;;;3.43;2.93;;;29.50;32.80;;;;;;4999850;28;20195;-66
2022/08/12 12:53:54;;;;;;;2.43;2.00;;;29.50;32.70;;;;;;5005638;28;20696;-66
2022/08/12 12:56:21;;;;;;;2.47;2.27;;;29.70;32.70;;;;;;5004643;28;20206;-64
2022/08/12 12:58:50;;;;;;;2.53;2.33;;;29.80;32.90;;;;;;5005696;28;20477;-65
2022/08/12 13:01:17;;;;;;;3.20;2.43;;;29.70;33.60;;;;;;5012377;28;20460;-65
2022/08/12 13:03:44;;;;;;;3.67;2.50;;;29.60;34.10;;;;;;5002035;28;20490;-64
2022/08/12 13:06:12;;;;;;;2.03;1.93;;;29.40;33.90;;;;;;5003876;28;21005;-65
2022/08/12 13:08:37;;;;;;;2.53;2.20;;;29.20;34.00;;;;;;5006648;28;20467;-65
2022/08/12 13:11:05;;;;;;;2.73;2.50;;;29.20;34.10;;;;;;5009190;28;20444;-65
2022/08/12 13:13:35;;;;;;;2.23;2.10;;;29.40;34.30;;;;;;5007657;28;20196;-65
2022/08/12 13:16:02;;;;;;;2.57;2.30;;;29.30;34.30;;;;;;5007223;28;20507;-66
2022/08/12 13:18:38;;;;;;;3.47;3.20;;;29.50;35.30;;;;;;4996754;28;20825;-65
2022/08/12 13:21:08;;;;;;;2.43;2.23;;;29.50;34.60;;;;;;5007142;28;20455;-66
2022/08/12 13:23:36;;;;;;;2.70;2.10;;;29.30;34.00;;;;;;5001226;28;20453;-65
2022/08/12 13:26:02;;;;;;;2.40;2.20;;;29.20;34.50;;;;;;5006524;28;20520;-65
2022/08/12 13:28:30;;;;;;;3.20;2.17;;;29.10;34.20;;;;;;5001772;28;20491;-66
2022/08/12 13:30:58;;;;;;;6.07;3.63;;;29.00;34.30;;;;;;5006803;28;20452;-66
2022/08/12 13:33:27;;;;;;;2.77;2.57;;;29.20;34.30;;;;;;4998944;28;20449;-65
2022/08/12 13:35:59;;;;;;;2.80;2.40;;;29.40;33.90;;;;;;5011925;28;20456;-65
2022/08/12 13:38:50;;;;;;;5.87;1.77;;;29.40;32.80;;;;;;5008856;28;20528;-66
2022/08/12 13:41:31;;;;;;;2.33;2.20;;;29.40;33.20;;;;;;5003098;28;20594;-64
2022/08/12 13:44:04;;;;;;;4.03;2.10;;;29.30;33.60;;;;;;5007184;28;20456;-67
2022/08/12 13:46:30;;;;;;;3.03;2.30;;;29.20;34.00;;;;;;5009400;28;20932;-66
2022/08/12 13:48:55;;;;;;;2.10;2.00;;;29.20;34.40;;;;;;5011472;28;20464;-67
2022/08/12 13:51:22;;;;;;;2.20;2.10;;;29.20;34.30;;;;;;5010725;28;20189;-71
2022/08/12 13:53:49;;;;;;;3.40;2.30;;;29.20;34.20;;;;;;5014990;28;20680;-70
2022/08/12 13:56:15;;;;;;;5.53;2.30;;;29.10;34.30;;;;;;5011070;28;20447;-65
2022/08/12 13:58:47;;;;;;;4.60;2.40;;;29.10;34.10;;;;;;5011253;28;20901;-66
2022/08/12 14:01:14;;;;;;;3.30;2.27;;;29.10;34.80;;;;;;5010879;28;20216;-66
2022/08/12 14:03:40;;;;;;;2.40;2.20;;;29.00;34.10;;;;;;5005497;28;20444;-69
2022/08/12 14:06:06;;;;;;;2.73;2.53;;;29.00;34.30;;;;;;5011193;28;21011;-65
2022/08/12 14:08:31;;;;;;;3.03;2.83;;;29.10;34.60;;;;;;5009201;28;20667;-65
2022/08/12 14:10:57;;;;;;;2.57;2.37;;;29.20;35.00;;;;;;5007554;28;20212;-67
2022/08/12 14:13:26;;;;;;;2.23;2.03;;;29.10;34.20;;;;;;5010224;28;20189;-66
2022/08/12 14:15:57;;;;;;;2.60;2.40;;;29.10;34.60;;;;;;5009920;28;20514;-65
2022/08/12 14:18:25;;;;;;;2.53;2.33;;;28.90;34.80;;;;;;4999243;28;21080;-63
2022/08/12 14:21:02;;;;;;;2.53;2.33;;;28.80;34.60;;;;;;5007454;28;20480;-64
2022/08/12 14:23:33;;;;;;;5.80;2.10;;;28.60;34.80;;;;;;5006041;28;20451;-63
2022/08/12 14:26:01;;;;;;;4.10;1.97;;;28.50;34.50;;;;;;5013150;28;21092;-64
2022/08/12 14:28:31;;;;;;;3.53;2.23;;;28.50;34.80;;;;;;5009412;28;20850;-67
2022/08/12 14:31:01;;;;;;;4.50;2.13;;;28.50;34.50;;;;;;5002578;28;20447;-65
2022/08/12 14:33:36;;;;;;;3.23;2.93;;;28.60;34.40;;;;;;5010765;28;21741;-66
2022/08/12 14:36:05;;;;;;;3.23;2.50;;;28.60;34.80;;;;;;5007957;28;20950;-64
2022/08/12 14:38:38;;;;;;;2.90;2.37;;;28.60;35.00;;;;;;5004845;28;21028;-64
2022/08/12 14:41:08;;;;;;;2.30;2.10;;;28.60;34.60;;;;;;5007682;28;20509;-66
2022/08/12 14:43:37;;;;;;;2.43;2.33;;;28.60;34.60;;;;;;5010285;28;20445;-66
2022/08/12 14:46:11;;;;;;;2.47;2.37;;;28.60;34.40;;;;;;5005687;28;20439;-66